Terminal Aerodrome Forecast
Issued by NWS Charleston, WV

Current Version | Previous Version | Graphics & Text | Print | Product List | Glossary Off
Versions: 1 2 3 4 5 6 7 8 9 10 11 12 13 14 15 16 17 18 19 20 21 22 23 24 25 26 27 28 29

000
FTUS41 KRLX 010900 AAB
TAFHTS
TAF AMD
KHTS 010901Z 0109/0206 00000KT 3SM BR BKN120
      TEMPO 0109/0111 2SM BR
     FM011200 00000KT P6SM FEW080
     FM011700 VRB03KT P6SM VCTS BKN070CB
     FM012100 09006KT P6SM BKN070=

USA.gov is the U.S. government's official web portal to all federal, state and local government web resources and services.